Terminal Aerodrome Forecast
Issued by NWS

Home | Current Version | Previous Version | Text Only | Print | Product List | Glossary On
Versions: 1 2 3 4 5 6 7 8 9 10 11 12 13 14 15 16 17 18
513
FTUS41 KGYX 241121
TAFAUG
TAF
KAUG 241121Z 2412/2512 20007KT P6SM BKN050 OVC100
     FM241800 20009KT 4SM -SN BKN025 OVC050
      TEMPO 2420/2424 1SM -SN BKN007 OVC015
     FM250000 23006KT P6SM -SHSN BKN007 OVC015
     FM250500 34005KT P6SM BKN025 OVC050=

USA.gov is the U.S. government's official web portal to all federal, state and local government web resources and services.